createdAt,value
2023-05-10T00:01:12.799Z,47.62
2023-05-10T00:02:16.357Z,47.96
2023-05-10T00:03:19.998Z,48.28
2023-05-10T00:04:23.624Z,48.21
2023-05-10T00:05:29.116Z,48.13
2023-05-10T00:06:33.356Z,48.21
2023-05-10T00:07:36.643Z,48.15
2023-05-10T00:08:40.566Z,48.35
2023-05-10T00:09:43.975Z,48.37
2023-05-10T00:10:47.368Z,48.73
2023-05-10T00:11:51.082Z,48.56
2023-05-10T00:12:54.524Z,48.70
2023-05-10T00:13:57.986Z,48.76
2023-05-10T00:15:01.490Z,48.73
2023-05-10T00:16:05.139Z,49.03
2023-05-10T00:17:08.561Z,49.13
2023-05-10T00:18:13.058Z,49.12
2023-05-10T00:19:17.518Z,49.48
2023-05-10T00:20:20.899Z,49.48
2023-05-10T00:21:23.780Z,49.55
2023-05-10T00:22:27.024Z,49.38
2023-05-10T00:23:30.481Z,49.43
2023-05-10T00:24:33.921Z,49.58
2023-05-10T00:25:37.378Z,49.73
2023-05-10T00:26:40.784Z,49.76
2023-05-10T00:27:44.082Z,49.65
2023-05-10T00:28:48.308Z,50.01
2023-05-10T00:29:52.546Z,49.74
2023-05-10T00:30:57.107Z,49.55
2023-05-10T00:32:00.536Z,49.53
2023-05-10T00:33:04.770Z,49.63
2023-05-10T00:34:07.368Z,49.63
2023-05-10T00:35:11.613Z,49.90
2023-05-10T00:36:14.997Z,50.17
2023-05-10T00:37:19.385Z,50.05
2023-05-10T00:38:27.704Z,50.04
2023-05-10T00:39:31.408Z,50.09
2023-05-10T00:40:36.579Z,50.35
2023-05-10T00:41:41.031Z,50.20
2023-05-10T00:42:44.960Z,50.53
2023-05-10T00:43:48.241Z,50.50
2023-05-10T00:44:52.587Z,50.47
2023-05-10T00:45:56.468Z,50.60
2023-05-10T00:47:04.232Z,50.67
2023-05-10T00:48:07.832Z,50.92
2023-05-10T00:49:13.086Z,50.83
2023-05-10T00:50:17.218Z,50.93
2023-05-10T00:51:20.830Z,51.03
2023-05-10T00:52:25.152Z,50.93
2023-05-10T00:53:28.780Z,51.06
2023-05-10T00:54:32.077Z,51.06
2023-05-10T00:55:38.798Z,51.17
2023-05-10T00:56:43.514Z,51.14
2023-05-10T00:57:47.416Z,51.17
2023-05-10T00:58:50.839Z,51.08
2023-05-10T00:59:53.670Z,51.24
2023-05-10T01:00:58.549Z,51.31
2023-05-10T01:02:02.598Z,51.28
2023-05-10T01:03:06.911Z,51.43
2023-05-10T01:04:11.766Z,51.44
2023-05-10T01:05:15.618Z,51.55
2023-05-10T01:06:20.279Z,51.56
2023-05-10T01:07:24.635Z,51.72
2023-05-10T01:08:27.772Z,51.59
2023-05-10T01:09:31.486Z,51.62
2023-05-10T01:10:34.836Z,51.48
2023-05-10T01:11:40.284Z,51.50
2023-05-10T01:12:44.957Z,51.62
2023-05-10T01:13:52.014Z,51.58
2023-05-10T01:14:55.843Z,51.60
2023-05-10T01:15:59.074Z,51.98
2023-05-10T01:17:02.696Z,51.92
2023-05-10T01:18:05.061Z,51.95
2023-05-10T01:19:09.137Z,51.83
2023-05-10T01:20:13.783Z,51.80
2023-05-10T01:21:30.786Z,52.01
2023-05-10T01:22:36.009Z,51.80
2023-05-10T01:23:52.727Z,51.79
2023-05-10T01:25:15.175Z,51.88
2023-05-10T01:26:20.127Z,51.93
2023-05-10T01:27:28.983Z,51.85
2023-05-10T01:28:45.877Z,51.96
2023-05-10T01:29:58.319Z,52.02
2023-05-10T01:31:11.200Z,52.03
2023-05-10T01:32:27.022Z,51.85
2023-05-10T01:33:31.624Z,51.94
2023-05-10T01:34:40.772Z,52.07
2023-05-10T01:35:49.234Z,52.13
2023-05-10T01:36:57.804Z,52.36
2023-05-10T01:38:02.254Z,52.30
2023-05-10T01:39:20.702Z,52.41
2023-05-10T01:40:42.275Z,52.50
2023-05-10T01:41:54.324Z,52.40
2023-05-10T01:43:00.141Z,52.42
2023-05-10T01:44:11.263Z,52.45
2023-05-10T01:45:25.817Z,52.68
2023-05-10T01:46:30.407Z,52.65
2023-05-10T01:47:41.624Z,52.68
2023-05-10T01:48:47.632Z,52.88
2023-05-10T01:49:52.754Z,52.77
2023-05-10T01:50:56.950Z,52.90
2023-05-10T01:52:04.321Z,53.14
2023-05-10T01:53:10.185Z,53.16
2023-05-10T01:54:14.948Z,53.34
2023-05-10T01:55:20.367Z,53.35
2023-05-10T01:56:26.736Z,53.41
2023-05-10T01:57:32.182Z,53.49
2023-05-10T01:58:39.543Z,53.49
2023-05-10T01:59:45.598Z,53.48
2023-05-10T02:00:51.606Z,53.62
2023-05-10T02:01:59.052Z,53.66
2023-05-10T02:03:05.064Z,53.76
2023-05-10T02:04:10.611Z,53.69
2023-05-10T02:05:14.501Z,53.88
2023-05-10T02:06:19.710Z,53.87
2023-05-10T02:07:22.527Z,53.86
2023-05-10T02:08:26.766Z,53.90
2023-05-10T02:09:31.417Z,53.86
2023-05-10T02:10:36.500Z,53.93
2023-05-10T02:11:40.943Z,54.05
2023-05-10T02:12:46.412Z,53.97
2023-05-10T02:13:50.624Z,53.88
2023-05-10T02:14:54.894Z,53.83
2023-05-10T02:15:58.820Z,53.95
2023-05-10T02:17:06.675Z,54.04
2023-05-10T02:18:13.263Z,54.18
2023-05-10T02:19:16.541Z,54.14
2023-05-10T02:20:21.920Z,54.08
2023-05-10T02:21:28.982Z,54.40
2023-05-10T02:22:36.051Z,54.22
2023-05-10T02:23:42.785Z,54.01
2023-05-10T02:24:45.764Z,53.96
2023-05-10T02:27:04.787Z,54.05
2023-05-10T02:28:09.069Z,53.89
2023-05-10T02:29:13.982Z,54.07
2023-05-10T02:30:18.355Z,54.02
2023-05-10T02:31:22.897Z,53.90
2023-05-10T02:32:27.573Z,53.89
2023-05-10T02:33:34.514Z,53.73
2023-05-10T02:34:38.096Z,53.53
2023-05-10T02:35:43.279Z,53.81
2023-05-10T02:36:47.193Z,53.57
2023-05-10T02:37:52.902Z,53.63
2023-05-10T02:38:56.922Z,53.76
2023-05-10T02:40:00.300Z,53.63
2023-05-10T02:41:04.139Z,53.60
2023-05-10T02:42:08.270Z,53.76
2023-05-10T02:43:14.072Z,53.59
2023-05-10T02:44:19.559Z,53.65
2023-05-10T02:45:28.572Z,53.74
2023-05-10T02:46:34.070Z,53.61
2023-05-10T02:47:39.194Z,53.68
2023-05-10T02:48:42.222Z,53.66
2023-05-10T02:49:46.383Z,53.59
2023-05-10T02:50:53.894Z,53.57
2023-05-10T02:51:59.454Z,53.60
2023-05-10T02:53:04.724Z,53.65
2023-05-10T02:54:12.947Z,53.59
2023-05-10T02:55:17.811Z,53.42
2023-05-10T02:56:23.395Z,53.53
2023-05-10T02:57:29.882Z,53.44
2023-05-10T02:58:35.403Z,53.38
2023-05-10T02:59:39.132Z,53.25
2023-05-10T03:00:42.533Z,52.82
2023-05-10T03:01:46.078Z,52.92
2023-05-10T03:02:49.825Z,52.56
2023-05-10T03:03:53.985Z,52.67
2023-05-10T03:04:57.728Z,52.58
2023-05-10T03:06:01.394Z,52.43
2023-05-10T03:07:05.337Z,52.14
2023-05-10T03:08:09.252Z,51.96
2023-05-10T03:09:13.070Z,51.32
2023-05-10T03:10:17.977Z,51.10
2023-05-10T03:11:43.485Z,50.43
2023-05-10T03:12:50.324Z,50.01
2023-05-10T03:14:05.945Z,50.40
2023-05-10T03:15:12.283Z,50.51
2023-05-10T03:16:20.472Z,50.66
2023-05-10T03:17:29.964Z,50.75
2023-05-10T03:18:35.427Z,50.78
2023-05-10T03:19:52.413Z,50.62
2023-05-10T03:21:01.298Z,50.97
2023-05-10T03:22:06.739Z,50.97
2023-05-10T03:23:20.790Z,50.92
2023-05-10T03:24:24.804Z,51.08
2023-05-10T03:25:28.410Z,51.18
2023-05-10T03:26:31.720Z,51.18
2023-05-10T03:27:37.306Z,51.28
2023-05-10T03:28:42.168Z,51.42
2023-05-10T03:29:47.142Z,51.31
2023-05-10T03:30:54.773Z,51.70
2023-05-10T03:31:59.899Z,51.73
2023-05-10T03:33:08.394Z,51.76
2023-05-10T03:34:13.082Z,51.48
2023-05-10T03:35:15.495Z,51.42
2023-05-10T03:36:21.534Z,51.63
2023-05-10T03:37:24.569Z,51.94
2023-05-10T03:38:30.211Z,51.79
2023-05-10T03:39:33.116Z,51.57
2023-05-10T03:40:37.547Z,51.49
2023-05-10T03:41:41.156Z,51.53
2023-05-10T03:42:45.605Z,51.30
2023-05-10T03:43:49.727Z,50.71
2023-05-10T03:44:52.614Z,50.65
2023-05-10T03:45:56.324Z,50.10
2023-05-10T03:46:59.751Z,49.85
2023-05-10T03:48:04.015Z,49.99
2023-05-10T03:49:07.045Z,49.96
2023-05-10T03:50:11.676Z,50.02
2023-05-10T03:51:16.089Z,50.09
2023-05-10T03:52:19.861Z,49.43
2023-05-10T03:53:24.111Z,49.15
2023-05-10T03:54:29.351Z,49.45
2023-05-10T03:55:33.521Z,49.80
2023-05-10T03:56:36.127Z,50.21
2023-05-10T03:57:40.394Z,50.16
2023-05-10T03:58:42.874Z,49.77
2023-05-10T03:59:48.445Z,49.22
2023-05-10T04:00:52.817Z,49.51
2023-05-10T04:01:56.654Z,49.43
2023-05-10T04:03:00.177Z,49.28
2023-05-10T04:04:03.843Z,49.21
2023-05-10T04:05:09.753Z,48.91
2023-05-10T04:06:14.666Z,48.95
2023-05-10T04:07:18.113Z,48.63
2023-05-10T04:08:20.682Z,48.54
2023-05-10T04:09:25.123Z,47.20
2023-05-10T04:10:29.556Z,45.10
2023-05-10T04:11:34.130Z,43.64
2023-05-10T04:12:40.802Z,42.05
2023-05-10T04:13:45.306Z,40.78
2023-05-10T04:14:50.271Z,39.80
2023-05-10T04:15:53.461Z,39.28
2023-05-10T04:16:57.039Z,38.91
2023-05-10T04:18:01.321Z,39.49
2023-05-10T04:19:05.441Z,39.34
2023-05-10T04:20:09.552Z,39.66
2023-05-10T04:21:15.150Z,40.20
2023-05-10T04:22:19.195Z,40.67
2023-05-10T04:23:22.607Z,40.69
2023-05-10T04:25:38.803Z,40.36
2023-05-10T04:26:42.302Z,39.68
2023-05-10T04:27:45.772Z,38.13
2023-05-10T04:28:49.539Z,35.87
2023-05-10T04:29:53.240Z,34.23
2023-05-10T04:30:58.443Z,32.95
2023-05-10T04:32:02.549Z,31.38
2023-05-10T04:33:06.181Z,30.45
2023-05-10T04:34:09.563Z,29.70
2023-05-10T04:35:13.169Z,28.90
2023-05-10T04:36:16.665Z,28.60
2023-05-10T04:37:20.178Z,28.31
2023-05-10T04:38:25.137Z,27.92
2023-05-10T04:39:28.762Z,27.12
2023-05-10T04:40:32.588Z,26.37
2023-05-10T04:41:36.390Z,25.65
2023-05-10T04:42:41.565Z,25.87
2023-05-10T04:43:44.971Z,26.16
2023-05-10T04:44:48.302Z,26.19
2023-05-10T04:45:54.755Z,26.13
2023-05-10T04:46:58.003Z,26.51
2023-05-10T04:48:00.782Z,25.96
2023-05-10T04:49:03.202Z,25.83
2023-05-10T04:50:08.421Z,25.20
2023-05-10T04:51:12.221Z,25.20
2023-05-10T04:52:15.832Z,25.33
2023-05-10T04:53:19.435Z,25.12
2023-05-10T04:54:23.252Z,24.81
2023-05-10T04:55:28.108Z,24.71
2023-05-10T04:56:33.545Z,24.93
2023-05-10T04:57:37.378Z,24.74
2023-05-10T04:58:41.350Z,24.58
2023-05-10T04:59:45.899Z,25.22
2023-05-10T05:00:50.646Z,24.72
2023-05-10T05:01:55.245Z,24.96
2023-05-10T05:02:59.883Z,25.16
2023-05-10T05:04:09.425Z,24.84
2023-05-10T05:05:14.495Z,24.18
2023-05-10T05:06:16.638Z,24.53
2023-05-10T05:07:18.987Z,24.17
2023-05-10T05:08:22.502Z,24.16
2023-05-10T05:09:27.993Z,24.23
2023-05-10T05:10:31.604Z,23.92
2023-05-10T05:11:36.036Z,23.52
2023-05-10T05:12:39.350Z,23.21
2023-05-10T05:13:42.848Z,22.97
2023-05-10T05:14:46.354Z,22.51
2023-05-10T05:15:50.684Z,22.15
2023-05-10T05:16:55.693Z,22.43
2023-05-10T05:18:00.013Z,22.34
2023-05-10T05:19:04.236Z,22.58
2023-05-10T05:20:08.409Z,22.55
2023-05-10T05:21:18.358Z,22.01
2023-05-10T05:22:24.481Z,21.94
2023-05-10T05:23:27.966Z,21.32
2023-05-10T05:24:34.317Z,21.53
2023-05-10T05:25:36.933Z,21.84
2023-05-10T05:26:41.407Z,21.95
2023-05-10T05:27:44.808Z,22.42
2023-05-10T05:28:50.088Z,22.34
2023-05-10T05:29:56.205Z,22.09
2023-05-10T05:30:59.492Z,23.43
2023-05-10T05:32:01.801Z,22.56
2023-05-10T05:33:05.226Z,22.42
2023-05-10T05:34:09.185Z,22.65
2023-05-10T05:35:12.888Z,21.81
2023-05-10T05:36:16.389Z,21.26
2023-05-10T05:37:24.361Z,20.49
2023-05-10T05:38:27.804Z,20.77
2023-05-10T05:39:33.393Z,21.32
2023-05-10T05:40:36.884Z,21.89
2023-05-10T05:41:40.397Z,22.12
2023-05-10T05:42:42.898Z,23.02
2023-05-10T05:43:46.465Z,22.59
2023-05-10T05:44:48.932Z,22.45
2023-05-10T05:45:54.225Z,22.64
2023-05-10T05:46:59.180Z,22.14
2023-05-10T05:48:03.648Z,21.36
2023-05-10T05:49:07.231Z,20.72
2023-05-10T05:50:11.140Z,19.86
2023-05-10T05:51:15.103Z,20.27
2023-05-10T05:52:46.153Z,20.12
2023-05-10T05:53:49.552Z,20.17
2023-05-10T05:54:52.845Z,20.57
2023-05-10T05:55:58.645Z,20.95
2023-05-10T05:57:01.671Z,21.07
2023-05-10T05:58:04.417Z,21.57
2023-05-10T05:59:07.607Z,21.65
2023-05-10T06:00:12.101Z,21.72
2023-05-10T06:01:18.325Z,22.40
2023-05-10T06:02:22.420Z,22.80
2023-05-10T06:03:26.064Z,23.05
2023-05-10T06:04:30.254Z,23.71
2023-05-10T06:05:33.532Z,23.67
2023-05-10T06:06:38.197Z,24.71
2023-05-10T06:07:42.544Z,23.79
2023-05-10T06:08:46.147Z,22.91
2023-05-10T06:09:49.652Z,22.88
2023-05-10T06:10:53.267Z,22.47
2023-05-10T06:11:56.034Z,22.68
2023-05-10T06:12:59.471Z,22.86
2023-05-10T06:14:06.170Z,22.88
2023-05-10T06:15:12.654Z,23.39
2023-05-10T06:16:18.436Z,23.61
2023-05-10T06:17:24.008Z,22.91
2023-05-10T06:18:27.396Z,22.81
2023-05-10T06:19:29.755Z,22.89
2023-05-10T06:20:33.262Z,24.33
2023-05-10T06:21:35.954Z,24.16
2023-05-10T06:22:38.223Z,24.80
2023-05-10T06:23:41.589Z,25.60
2023-05-10T06:24:44.152Z,23.37
2023-05-10T06:25:49.020Z,21.92
2023-05-10T06:26:52.637Z,21.81
2023-05-10T06:28:00.834Z,22.42
2023-05-10T06:29:05.379Z,21.09
2023-05-10T06:30:13.321Z,21.33
2023-05-10T06:31:14.822Z,21.28
2023-05-10T06:32:18.716Z,21.18
2023-05-10T06:33:22.005Z,22.66
2023-05-10T06:34:25.511Z,23.98
2023-05-10T06:35:28.775Z,23.19
2023-05-10T06:36:32.526Z,22.25
2023-05-10T06:37:38.651Z,20.43
2023-05-10T06:38:41.943Z,19.55
2023-05-10T06:39:45.335Z,19.68
2023-05-10T06:40:49.059Z,18.79
2023-05-10T06:41:53.695Z,17.63
2023-05-10T06:42:57.097Z,17.95
2023-05-10T06:44:01.135Z,17.86
2023-05-10T06:45:05.043Z,17.67
2023-05-10T06:46:07.974Z,17.10
2023-05-10T06:47:12.504Z,16.75
2023-05-10T06:48:15.735Z,17.00
2023-05-10T06:49:19.585Z,17.46
2023-05-10T06:50:22.286Z,16.86
2023-05-10T06:51:25.753Z,17.42
2023-05-10T06:52:29.162Z,16.82
2023-05-10T06:53:35.642Z,16.09
2023-05-10T06:54:39.638Z,15.47
2023-05-10T06:55:43.138Z,15.58
2023-05-10T06:56:48.301Z,16.07
2023-05-10T06:57:53.233Z,16.23
2023-05-10T06:58:57.882Z,16.51
2023-05-10T07:00:00.877Z,16.35
2023-05-10T07:01:04.475Z,15.91
2023-05-10T07:02:07.854Z,15.12
2023-05-10T07:03:11.634Z,15.32
2023-05-10T07:04:15.922Z,15.61
2023-05-10T07:05:20.279Z,15.01
2023-05-10T07:06:32.784Z,15.22
2023-05-10T07:07:29.360Z,16.62
2023-05-10T07:08:34.577Z,15.73
2023-05-10T07:09:38.266Z,14.71
2023-05-10T07:10:40.449Z,15.11
2023-05-10T07:11:45.001Z,15.00
2023-05-10T07:12:48.446Z,15.44
2023-05-10T07:13:52.225Z,15.50
2023-05-10T07:14:55.807Z,15.84
2023-05-10T07:16:00.252Z,16.05
2023-05-10T07:17:03.539Z,15.50
2023-05-10T07:18:09.036Z,15.86
2023-05-10T07:19:17.069Z,15.64
2023-05-10T07:20:20.655Z,15.44
2023-05-10T07:21:25.830Z,16.42
2023-05-10T07:22:29.455Z,15.70
2023-05-10T07:23:32.750Z,15.61
2023-05-10T07:24:37.809Z,15.73
2023-05-10T07:25:41.224Z,15.68
2023-05-10T07:26:44.522Z,15.57
2023-05-10T07:27:49.904Z,15.24
2023-05-10T07:28:53.306Z,15.50
2023-05-10T07:29:58.176Z,15.45
2023-05-10T07:31:01.729Z,15.59
2023-05-10T07:32:06.568Z,15.41
2023-05-10T07:33:10.688Z,16.01
2023-05-10T07:34:15.316Z,15.67
2023-05-10T07:35:19.221Z,15.16
2023-05-10T07:36:22.535Z,16.35
2023-05-10T07:37:25.815Z,15.98
2023-05-10T07:38:30.894Z,15.89
2023-05-10T07:39:34.408Z,16.13
2023-05-10T07:40:41.358Z,17.08
2023-05-10T07:41:45.064Z,16.90
2023-05-10T07:42:49.358Z,16.99
2023-05-10T07:43:53.129Z,17.16
2023-05-10T07:44:57.302Z,17.30
2023-05-10T07:46:02.602Z,17.35
2023-05-10T07:47:07.307Z,17.53
2023-05-10T07:48:10.609Z,17.89
2023-05-10T07:49:13.889Z,17.26
2023-05-10T07:50:17.230Z,18.19
2023-05-10T07:51:20.469Z,18.02
2023-05-10T07:53:30.147Z,18.01
2023-05-10T07:54:33.604Z,17.95
2023-05-10T07:55:37.001Z,17.83
2023-05-10T07:56:43.015Z,18.86
2023-05-10T07:57:46.410Z,18.98
2023-05-10T07:58:49.809Z,19.28
2023-05-10T07:59:53.099Z,20.01
2023-05-10T08:00:57.143Z,19.73
2023-05-10T08:02:03.421Z,19.82
2023-05-10T08:03:07.473Z,20.40
2023-05-10T08:04:11.378Z,21.87
2023-05-10T08:05:16.618Z,22.74
2023-05-10T08:06:22.387Z,22.53
2023-05-10T08:07:27.893Z,22.20
2023-05-10T08:08:32.062Z,22.97
2023-05-10T08:09:36.044Z,23.89
2023-05-10T08:10:39.436Z,24.48
2023-05-10T08:11:42.626Z,24.72
2023-05-10T08:12:48.857Z,24.42
2023-05-10T08:13:52.468Z,25.61
2023-05-10T08:14:55.969Z,26.11
2023-05-10T08:16:00.375Z,26.58
2023-05-10T08:17:05.583Z,26.94
2023-05-10T08:18:11.358Z,27.29
2023-05-10T08:19:13.994Z,27.74
2023-05-10T08:20:18.184Z,28.21
2023-05-10T08:21:23.222Z,28.48
2023-05-10T08:22:27.188Z,28.96
2023-05-10T08:23:30.487Z,28.65
2023-05-10T08:24:34.094Z,27.23
2023-05-10T08:25:38.461Z,26.78
2023-05-10T08:26:41.918Z,25.59
2023-05-10T08:27:45.341Z,24.91
2023-05-10T08:28:48.217Z,24.42
2023-05-10T08:29:52.766Z,25.08
2023-05-10T08:30:57.573Z,26.21
2023-05-10T08:33:15.938Z,26.17
2023-05-10T08:34:20.253Z,26.89
2023-05-10T08:35:23.498Z,27.45
2023-05-10T08:36:25.799Z,27.25
2023-05-10T08:37:31.288Z,26.44
2023-05-10T08:38:34.798Z,25.36
2023-05-10T08:39:39.357Z,24.37
2023-05-10T08:40:48.499Z,23.36
2023-05-10T08:41:53.148Z,24.13
2023-05-10T08:43:02.295Z,23.92
2023-05-10T08:44:12.366Z,24.16
2023-05-10T08:45:16.200Z,24.49
2023-05-10T08:46:21.251Z,25.50
2023-05-10T08:47:24.555Z,25.80
2023-05-10T08:48:33.112Z,26.80
2023-05-10T08:49:37.325Z,26.63
2023-05-10T08:50:40.526Z,26.81
2023-05-10T08:51:45.911Z,26.19
2023-05-10T08:52:51.214Z,26.70
2023-05-10T08:53:53.862Z,26.56
2023-05-10T08:54:57.660Z,26.22
2023-05-10T08:56:01.695Z,26.32
2023-05-10T08:57:07.089Z,25.67
2023-05-10T08:58:11.378Z,25.95
2023-05-10T08:59:15.650Z,25.56
2023-05-10T09:00:20.856Z,24.51
2023-05-10T09:01:27.591Z,25.04
2023-05-10T09:02:31.518Z,24.75
2023-05-10T09:03:36.341Z,25.22
2023-05-10T09:04:39.861Z,24.98
2023-05-10T09:05:43.059Z,24.48
2023-05-10T09:06:48.604Z,23.88
2023-05-10T09:07:52.158Z,23.99
2023-05-10T09:08:54.826Z,23.81
2023-05-10T09:10:00.345Z,23.87
2023-05-10T09:11:04.779Z,23.79
2023-05-10T09:12:11.693Z,24.29
2023-05-10T09:13:15.637Z,24.51
2023-05-10T09:14:19.209Z,24.38
2023-05-10T09:15:22.847Z,24.42
2023-05-10T09:16:26.394Z,22.95
2023-05-10T09:17:31.161Z,23.31
2023-05-10T09:18:34.876Z,22.30
2023-05-10T09:19:38.395Z,21.97
2023-05-10T09:20:42.158Z,21.97
2023-05-10T09:21:45.768Z,22.30
2023-05-10T09:22:52.613Z,22.37
2023-05-10T09:23:58.067Z,21.25
2023-05-10T09:25:15.383Z,21.36
2023-05-10T09:26:22.545Z,20.96
2023-05-10T09:27:28.881Z,20.66
2023-05-10T09:28:36.189Z,20.68
2023-05-10T09:29:43.935Z,20.66
2023-05-10T09:30:49.220Z,21.53
2023-05-10T09:31:56.287Z,21.42
2023-05-10T09:33:04.113Z,21.65
2023-05-10T09:34:07.663Z,21.61
2023-05-10T09:35:15.455Z,22.11
2023-05-10T09:36:19.482Z,21.54
2023-05-10T09:37:24.896Z,22.31
2023-05-10T09:38:28.273Z,23.13
2023-05-10T09:39:33.985Z,23.84
2023-05-10T09:40:38.398Z,24.05
2023-05-10T09:41:43.686Z,24.39
2023-05-10T09:42:56.180Z,24.89
2023-05-10T09:43:59.475Z,25.32
2023-05-10T09:45:06.394Z,25.35
2023-05-10T09:46:12.026Z,25.25
2023-05-10T09:47:17.927Z,24.46
2023-05-10T09:48:22.368Z,24.85
2023-05-10T09:49:27.077Z,25.20
2023-05-10T09:50:32.513Z,25.46
2023-05-10T09:51:37.077Z,25.11
2023-05-10T09:53:01.665Z,25.14
2023-05-10T09:54:15.102Z,25.16
2023-05-10T09:55:20.241Z,24.77
2023-05-10T09:56:40.811Z,24.75
2023-05-10T09:57:44.194Z,25.79
2023-05-10T09:58:51.159Z,24.83
2023-05-10T09:59:55.903Z,24.84
2023-05-10T10:00:59.511Z,24.91
2023-05-10T10:02:04.619Z,24.37
2023-05-10T10:03:10.106Z,23.71
2023-05-10T10:04:14.822Z,23.48
2023-05-10T10:05:21.637Z,23.27
2023-05-10T10:06:30.211Z,24.07
2023-05-10T10:07:30.878Z,23.81
2023-05-10T10:08:36.821Z,24.01
2023-05-10T10:09:40.305Z,23.12
2023-05-10T10:10:46.597Z,22.47
2023-05-10T10:11:50.238Z,22.31
2023-05-10T10:12:54.102Z,21.88
2023-05-10T10:14:00.491Z,22.45
2023-05-10T10:15:06.809Z,21.64
2023-05-10T10:16:10.413Z,20.86
2023-05-10T10:17:14.657Z,21.16
2023-05-10T10:18:19.283Z,21.47
2023-05-10T10:19:23.232Z,21.34
2023-05-10T10:20:27.725Z,21.36
2023-05-10T10:21:31.915Z,21.56
2023-05-10T10:22:34.527Z,22.02
2023-05-10T10:23:40.899Z,21.81
2023-05-10T10:24:45.033Z,22.01
2023-05-10T10:25:50.412Z,21.24
2023-05-10T10:26:55.707Z,21.63
2023-05-10T10:28:04.327Z,21.90
2023-05-10T10:29:24.632Z,21.46
2023-05-10T10:30:47.587Z,21.69
2023-05-10T10:33:33.678Z,22.22
2023-05-10T10:34:38.823Z,22.71
2023-05-10T10:35:42.632Z,21.91
2023-05-10T10:36:49.613Z,22.20
2023-05-10T10:37:52.906Z,22.22
2023-05-10T10:38:58.665Z,21.93
2023-05-10T10:40:01.881Z,22.11
2023-05-10T10:41:12.502Z,22.33
2023-05-10T10:42:15.790Z,21.96
2023-05-10T10:43:28.802Z,22.57
2023-05-10T10:44:35.880Z,22.33
2023-05-10T10:45:42.294Z,22.26
2023-05-10T10:47:01.752Z,23.38
2023-05-10T10:48:23.466Z,23.04
2023-05-10T10:49:27.938Z,22.81
2023-05-10T10:50:30.356Z,22.83
2023-05-10T10:51:35.323Z,23.24
2023-05-10T10:52:40.039Z,22.97
2023-05-10T10:53:43.168Z,23.37
2023-05-10T10:54:48.351Z,22.34
2023-05-10T10:55:55.573Z,22.57
2023-05-10T10:57:19.494Z,23.20
2023-05-10T10:58:36.257Z,22.83
2023-05-10T10:59:42.358Z,23.26
2023-05-10T11:00:48.361Z,22.84
2023-05-10T11:01:54.282Z,22.81
2023-05-10T11:04:07.372Z,23.14
2023-05-10T11:05:26.661Z,23.14
2023-05-10T11:06:34.104Z,23.10
2023-05-10T11:07:36.434Z,23.32
2023-05-10T11:08:45.192Z,23.88
2023-05-10T11:09:48.383Z,23.75
2023-05-10T11:10:53.874Z,23.26
2023-05-10T11:11:57.378Z,23.22
2023-05-10T11:13:04.420Z,23.35
2023-05-10T11:14:08.986Z,23.68
2023-05-10T11:15:11.489Z,23.36
2023-05-10T11:16:17.019Z,23.79
2023-05-10T11:17:23.524Z,23.40
2023-05-10T11:18:32.480Z,23.75
2023-05-10T11:19:36.430Z,24.48
2023-05-10T11:20:40.462Z,24.34
2023-05-10T11:21:47.929Z,24.42
2023-05-10T11:22:54.352Z,24.83
2023-05-10T11:24:00.480Z,24.56
2023-05-10T11:25:04.078Z,23.84
2023-05-10T11:26:10.103Z,24.20
2023-05-10T11:27:12.663Z,24.51
2023-05-10T11:28:15.539Z,24.68
2023-05-10T11:29:19.018Z,24.94
2023-05-10T11:30:22.681Z,25.03
2023-05-10T11:31:29.217Z,24.45
2023-05-10T11:32:33.220Z,24.54
2023-05-10T11:33:45.937Z,24.70
2023-05-10T11:34:52.116Z,25.04
2023-05-10T11:35:55.534Z,25.38
2023-05-10T11:36:59.642Z,25.79
2023-05-10T11:38:03.093Z,25.54
2023-05-10T11:39:07.312Z,25.13
2023-05-10T11:40:12.879Z,25.37
2023-05-10T11:41:19.742Z,25.57
2023-05-10T11:42:24.401Z,25.70
2023-05-10T11:43:29.759Z,25.90
2023-05-10T11:44:35.441Z,25.63
2023-05-10T11:45:38.965Z,25.76
2023-05-10T11:46:41.495Z,25.83
2023-05-10T11:47:45.500Z,26.30
2023-05-10T11:48:53.184Z,25.17
2023-05-10T11:49:57.190Z,25.58
2023-05-10T11:51:01.021Z,25.58
2023-05-10T11:52:10.865Z,25.65
2023-05-10T11:53:14.909Z,25.83
2023-05-10T11:54:19.570Z,25.16
2023-05-10T11:55:23.281Z,25.64
2023-05-10T11:56:27.616Z,25.17
2023-05-10T11:57:37.154Z,24.97
2023-05-10T11:58:41.510Z,25.29
2023-05-10T11:59:44.795Z,25.67
2023-05-10T12:00:47.485Z,25.86
2023-05-10T12:01:52.139Z,25.11
2023-05-10T12:02:54.546Z,25.32
2023-05-10T12:04:02.511Z,25.60
2023-05-10T12:05:10.355Z,26.21
2023-05-10T12:06:16.431Z,25.69
2023-05-10T12:07:23.242Z,25.30
2023-05-10T12:08:28.145Z,24.91
2023-05-10T12:09:43.365Z,24.56
2023-05-10T12:10:35.944Z,24.94
2023-05-10T12:11:43.571Z,24.80
2023-05-10T12:12:47.642Z,25.28
2023-05-10T12:13:51.470Z,24.74
2023-05-10T12:14:54.659Z,24.30
2023-05-10T12:16:02.362Z,24.12
2023-05-10T12:17:05.871Z,24.24
2023-05-10T12:18:13.024Z,24.26
2023-05-10T12:19:17.668Z,24.58
2023-05-10T12:20:22.661Z,24.44
2023-05-10T12:21:28.157Z,25.06
2023-05-10T12:22:31.833Z,24.38
2023-05-10T12:23:34.196Z,23.58
2023-05-10T12:24:41.664Z,23.94
2023-05-10T12:25:46.025Z,24.01
2023-05-10T12:26:51.076Z,24.23
2023-05-10T12:27:57.928Z,24.23
2023-05-10T12:29:12.928Z,23.97
2023-05-10T12:30:23.581Z,23.86
2023-05-10T12:31:26.958Z,24.38
2023-05-10T12:32:41.673Z,23.56
2023-05-10T12:33:45.434Z,23.71
2023-05-10T12:34:48.411Z,23.69
2023-05-10T12:35:53.493Z,23.64
2023-05-10T12:36:56.316Z,23.74
2023-05-10T12:38:02.583Z,23.80
2023-05-10T12:39:06.277Z,24.20
2023-05-10T12:40:12.750Z,23.49
2023-05-10T12:41:20.490Z,24.34
2023-05-10T12:42:26.204Z,25.00
2023-05-10T12:43:28.787Z,23.88
2023-05-10T12:44:32.199Z,25.50
2023-05-10T12:45:36.313Z,24.38
2023-05-10T12:46:39.690Z,24.13
2023-05-10T12:47:48.921Z,24.81
2023-05-10T12:49:00.228Z,24.57
2023-05-10T12:50:02.887Z,25.22
2023-05-10T12:51:07.206Z,24.63
2023-05-10T12:52:10.596Z,24.62
2023-05-10T12:53:15.572Z,24.91
2023-05-10T12:54:20.234Z,25.10
2023-05-10T12:55:26.390Z,24.45
2023-05-10T12:56:31.958Z,24.49
2023-05-10T12:57:36.589Z,24.61
2023-05-10T12:58:38.896Z,25.07
2023-05-10T12:59:44.068Z,25.26
2023-05-10T13:00:48.678Z,24.86
2023-05-10T13:01:53.236Z,24.95
2023-05-10T13:02:56.746Z,24.50
2023-05-10T13:04:01.938Z,24.93
2023-05-10T13:05:06.513Z,24.59
2023-05-10T13:06:10.278Z,25.21
2023-05-10T13:07:13.664Z,24.85
2023-05-10T13:08:16.960Z,24.70
2023-05-10T13:09:21.420Z,24.46
2023-05-10T13:10:25.756Z,25.05
2023-05-10T13:11:28.109Z,24.32
2023-05-10T13:12:32.338Z,24.54
2023-05-10T13:13:36.161Z,24.20
2023-05-10T13:14:38.523Z,23.94
2023-05-10T13:15:42.067Z,23.89
2023-05-10T13:16:45.462Z,24.01
2023-05-10T13:17:48.943Z,24.06
2023-05-10T13:18:52.895Z,24.48
2023-05-10T13:19:55.934Z,24.43
2023-05-10T13:20:58.392Z,24.20
2023-05-10T13:22:04.724Z,24.04
2023-05-10T13:23:08.133Z,23.92
2023-05-10T13:24:14.681Z,24.29
2023-05-10T13:25:18.996Z,23.73
2023-05-10T13:26:22.721Z,23.79
2023-05-10T13:27:27.074Z,23.79
2023-05-10T13:28:32.220Z,23.97
2023-05-10T13:29:34.802Z,24.05
2023-05-10T13:30:41.254Z,23.88
2023-05-10T13:31:45.438Z,24.00
2023-05-10T13:32:48.847Z,24.67
2023-05-10T13:33:51.544Z,23.65
2023-05-10T13:34:57.022Z,24.18
2023-05-10T13:35:59.268Z,24.08
2023-05-10T13:37:03.090Z,24.17
2023-05-10T13:38:07.688Z,24.28
2023-05-10T13:39:11.135Z,24.56
2023-05-10T13:40:14.340Z,24.20
2023-05-10T13:41:17.844Z,24.43
2023-05-10T13:42:21.454Z,24.31
2023-05-10T13:43:25.173Z,23.86
2023-05-10T13:44:28.454Z,24.34
2023-05-10T13:45:31.863Z,23.86
2023-05-10T13:46:35.601Z,23.93
2023-05-10T13:47:39.220Z,24.12
2023-05-10T13:48:44.765Z,24.57
2023-05-10T13:49:49.324Z,25.36
2023-05-10T13:50:53.992Z,24.12
2023-05-10T13:51:58.458Z,23.92
2023-05-10T13:53:01.827Z,24.76
2023-05-10T13:54:05.324Z,24.30
2023-05-10T13:55:09.576Z,24.29
2023-05-10T13:56:14.481Z,24.53
2023-05-10T13:57:17.949Z,25.31
2023-05-10T13:58:21.498Z,25.36
2023-05-10T13:59:26.310Z,25.04
2023-05-10T14:00:29.706Z,24.65
2023-05-10T14:01:32.628Z,24.44
2023-05-10T14:02:36.145Z,24.44
2023-05-10T14:03:39.762Z,24.28
2023-05-10T14:04:44.039Z,24.14
2023-05-10T14:05:48.472Z,24.17
2023-05-10T14:06:51.775Z,24.47